createdAt,value
2022-10-11T00:00:58.239Z,98261.60
2022-10-11T00:03:34.846Z,98263.22
2022-10-11T00:06:03.941Z,98260.96
2022-10-11T00:08:33.104Z,98265.79
2022-10-11T00:11:03.421Z,98267.73
2022-10-11T00:13:31.786Z,98267.89
2022-10-11T00:15:59.705Z,98265.21
2022-10-11T00:18:27.573Z,98270.41
2022-10-11T00:21:10.787Z,98270.04
2022-10-11T00:23:39.054Z,98275.77
2022-10-11T00:26:09.324Z,98272.56
2022-10-11T00:28:38.068Z,98272.02
2022-10-11T00:31:11.138Z,98273.46
2022-10-11T00:33:39.740Z,98271.27
2022-10-11T00:36:09.254Z,98273.83
2022-10-11T00:38:37.578Z,98270.38
2022-10-11T00:41:05.626Z,98271.57
2022-10-11T00:43:34.177Z,98270.42
2022-10-11T00:46:06.847Z,98270.00
2022-10-11T00:48:45.897Z,98272.84
2022-10-11T00:51:21.330Z,98274.95
2022-10-11T00:53:51.165Z,98272.55
2022-10-11T00:56:32.798Z,98272.54
2022-10-11T00:59:04.916Z,98275.44
2022-10-11T01:01:33.116Z,98272.11
2022-10-11T01:04:01.995Z,98272.41
2022-10-11T01:06:30.001Z,98270.80
2022-10-11T01:08:57.914Z,98271.02
2022-10-11T01:11:28.985Z,98271.92
2022-10-11T01:14:15.917Z,98273.52
2022-10-11T01:16:46.836Z,98274.48
2022-10-11T01:19:52.394Z,98275.79
2022-10-11T01:22:29.338Z,98276.20
2022-10-11T01:25:25.056Z,98271.61
2022-10-11T01:27:56.212Z,98276.06
2022-10-11T01:30:28.956Z,98276.08
2022-10-11T01:33:22.885Z,98273.60
2022-10-11T01:36:03.748Z,98273.59
2022-10-11T01:38:34.689Z,98274.63
2022-10-11T01:41:08.267Z,98274.08
2022-10-11T01:43:38.625Z,98273.77
2022-10-11T01:46:08.414Z,98275.89
2022-10-11T01:49:03.126Z,98277.46
2022-10-11T01:51:47.604Z,98277.38
2022-10-11T01:54:24.750Z,98275.70
2022-10-11T01:57:10.731Z,98281.05
2022-10-11T01:59:44.542Z,98281.31
2022-10-11T02:02:49.926Z,98282.02
2022-10-11T02:05:30.673Z,98279.24
2022-10-11T02:08:26.778Z,98281.54
2022-10-11T02:11:06.851Z,98289.44
2022-10-11T02:13:46.233Z,98285.90
2022-10-11T02:16:20.631Z,98284.03
2022-10-11T02:18:52.990Z,98285.14
2022-10-11T02:21:23.281Z,98281.56
2022-10-11T02:24:00.520Z,98281.13
2022-10-11T02:26:31.489Z,98282.34
2022-10-11T02:29:04.689Z,98280.59
2022-10-11T02:31:34.791Z,98282.52
2022-10-11T02:34:18.656Z,98285.41
2022-10-11T02:37:02.439Z,98281.64
2022-10-11T02:39:39.538Z,98283.39
2022-10-11T02:42:14.232Z,98287.61
2022-10-11T02:44:46.616Z,98287.79
2022-10-11T02:47:14.871Z,98282.63
2022-10-11T02:49:42.733Z,98290.51
2022-10-11T02:52:10.541Z,98292.20
2022-10-11T02:54:38.382Z,98290.48
2022-10-11T02:57:06.228Z,98289.79
2022-10-11T02:59:34.067Z,98292.75
2022-10-11T03:02:01.926Z,98295.67
2022-10-11T03:04:29.765Z,98300.55
2022-10-11T03:06:57.547Z,98300.06
2022-10-11T03:09:25.585Z,98304.38
2022-10-11T03:11:53.403Z,98302.70
2022-10-11T03:14:21.199Z,98303.55
2022-10-11T03:16:51.573Z,98304.89
2022-10-11T03:19:19.614Z,98302.09
2022-10-11T03:21:47.536Z,98305.13
2022-10-11T03:24:15.483Z,98306.14
2022-10-11T03:26:43.335Z,98304.14
2022-10-11T03:29:11.209Z,98303.58
2022-10-11T03:31:39.047Z,98305.25
2022-10-11T03:34:06.928Z,98307.59
2022-10-11T03:36:34.740Z,98310.19
2022-10-11T03:39:03.862Z,98318.61
2022-10-11T03:41:31.891Z,98319.35
2022-10-11T03:43:59.723Z,98318.84
2022-10-11T03:46:27.609Z,98323.81
2022-10-11T03:48:55.441Z,98322.10
2022-10-11T03:51:23.301Z,98328.64
2022-10-11T03:53:51.045Z,98330.02
2022-10-11T03:56:18.901Z,98332.33
2022-10-11T03:58:46.756Z,98335.25
2022-10-11T04:01:14.749Z,98335.08
2022-10-11T04:03:42.878Z,98334.31
2022-10-11T04:06:12.190Z,98334.39
2022-10-11T04:08:39.996Z,98334.70
2022-10-11T04:11:07.941Z,98339.38
2022-10-11T04:13:36.422Z,98334.70
2022-10-11T04:16:04.910Z,98340.52
2022-10-11T04:18:32.873Z,98335.66
2022-10-11T04:21:00.677Z,98333.23
2022-10-11T04:23:30.955Z,98333.44
2022-10-11T04:25:58.834Z,98339.20
2022-10-11T04:28:26.774Z,98340.38
2022-10-11T04:30:54.660Z,98344.34
2022-10-11T04:33:22.494Z,98343.91
2022-10-11T04:35:54.904Z,98346.45
2022-10-11T04:38:23.689Z,98344.59
2022-10-11T04:40:51.556Z,98350.30
2022-10-11T04:43:19.561Z,98351.90
2022-10-11T04:45:47.373Z,98349.59
2022-10-11T04:48:15.567Z,98346.83
2022-10-11T04:50:45.409Z,98353.69
2022-10-11T04:53:17.367Z,98356.50
2022-10-11T04:55:45.471Z,98355.80
2022-10-11T04:58:13.314Z,98358.04
2022-10-11T05:00:42.649Z,98359.20
2022-10-11T05:03:10.554Z,98358.89
2022-10-11T05:05:38.846Z,98359.86
2022-10-11T05:08:06.761Z,98365.77
2022-10-11T05:10:37.105Z,98361.71
2022-10-11T05:13:05.016Z,98369.20
2022-10-11T05:15:33.001Z,98365.39
2022-10-11T05:18:00.947Z,98367.79
2022-10-11T05:20:32.005Z,98372.23
2022-10-11T05:23:00.124Z,98378.63
2022-10-11T05:25:28.133Z,98380.16
2022-10-11T05:27:56.198Z,98381.80
2022-10-11T05:30:23.985Z,98386.17
2022-10-11T05:32:51.838Z,98390.14
2022-10-11T05:35:19.639Z,98395.98
2022-10-11T05:37:47.413Z,98394.77
2022-10-11T05:40:15.423Z,98396.94
2022-10-11T05:42:43.224Z,98399.98
2022-10-11T05:45:11.025Z,98402.23
2022-10-11T05:47:38.820Z,98403.41
2022-10-11T05:50:07.206Z,98401.00
2022-10-11T05:52:35.051Z,98406.98
2022-10-11T05:55:03.453Z,98409.79
2022-10-11T05:57:31.288Z,98407.78
2022-10-11T05:59:59.192Z,98410.44
2022-10-11T06:02:27.042Z,98415.42
2022-10-11T06:04:54.838Z,98418.42
2022-10-11T06:07:22.709Z,98420.17
2022-10-11T06:09:51.643Z,98421.67
2022-10-11T06:12:19.651Z,98426.77
2022-10-11T06:14:47.902Z,98424.19
2022-10-11T06:17:15.795Z,98433.27
2022-10-11T06:19:43.626Z,98436.92
2022-10-11T06:22:12.320Z,98441.88
2022-10-11T06:24:40.103Z,98455.13
2022-10-11T06:27:08.505Z,98457.20
2022-10-11T06:29:36.803Z,98465.42
2022-10-11T06:32:05.517Z,98466.13
2022-10-11T06:34:33.426Z,98469.62
2022-10-11T06:37:01.257Z,98470.75
2022-10-11T06:39:29.203Z,98474.80
2022-10-11T06:41:57.166Z,98479.46
2022-10-11T06:44:26.512Z,98483.79
2022-10-11T06:46:54.413Z,98484.85
2022-10-11T06:49:23.498Z,98490.55
2022-10-11T06:51:51.600Z,98489.98
2022-10-11T06:54:19.449Z,98494.30
2022-10-11T06:57:14.078Z,98494.87
2022-10-11T06:59:41.951Z,98492.69
2022-10-11T07:02:10.377Z,98490.39
2022-10-11T07:04:38.252Z,98491.20
2022-10-11T07:07:06.129Z,98493.73
2022-10-11T07:09:34.502Z,98491.69
2022-10-11T07:12:02.305Z,98493.36
2022-10-11T07:14:30.129Z,98498.92
2022-10-11T07:16:58.170Z,98505.98
2022-10-11T07:19:26.023Z,98507.79
2022-10-11T07:21:53.827Z,98511.91
2022-10-11T07:24:21.724Z,98510.61
2022-10-11T07:26:49.558Z,98509.91
2022-10-11T07:29:17.479Z,98510.73
2022-10-11T07:31:45.404Z,98517.17
2022-10-11T07:34:13.307Z,98513.98
2022-10-11T07:36:41.129Z,98520.59
2022-10-11T07:39:09.390Z,98525.96
2022-10-11T07:41:44.575Z,98531.30
2022-10-11T07:44:14.799Z,98538.10
2022-10-11T07:46:42.670Z,98538.84
2022-10-11T07:49:10.442Z,98543.54
2022-10-11T07:51:38.261Z,98540.92
2022-10-11T07:54:07.430Z,98539.78
2022-10-11T07:56:36.992Z,98536.45
2022-10-11T07:59:04.956Z,98540.41
2022-10-11T08:01:33.451Z,98546.46
2022-10-11T08:04:01.367Z,98546.66
2022-10-11T08:06:32.616Z,98551.97
2022-10-11T08:09:01.569Z,98555.09
2022-10-11T08:11:32.814Z,98556.14
2022-10-11T08:14:02.014Z,98554.00
2022-10-11T08:16:29.984Z,98550.62
2022-10-11T08:18:57.858Z,98547.70
2022-10-11T08:21:26.944Z,98549.63
2022-10-11T08:23:55.243Z,98544.77
2022-10-11T08:26:24.538Z,98538.48
2022-10-11T08:28:52.498Z,98547.42
2022-10-11T08:31:20.873Z,98543.55
2022-10-11T08:33:48.697Z,98548.02
2022-10-11T08:36:16.519Z,98549.92
2022-10-11T08:38:44.436Z,98552.14
2022-10-11T08:41:15.226Z,98550.46
2022-10-11T08:43:58.063Z,98554.47
2022-10-11T08:46:33.670Z,98559.99
2022-10-11T08:49:02.666Z,98564.24
2022-10-11T08:51:43.419Z,98563.67
2022-10-11T08:54:23.019Z,98564.19
2022-10-11T08:56:51.353Z,98568.21
2022-10-11T08:59:46.756Z,98568.84
2022-10-11T09:02:14.514Z,98562.59
2022-10-11T09:04:42.327Z,98560.04
2022-10-11T09:07:33.658Z,98561.14
2022-10-11T09:10:07.741Z,98562.62
2022-10-11T09:12:50.364Z,98565.63
2022-10-11T09:15:25.280Z,98566.70
2022-10-11T09:18:25.915Z,98571.36
2022-10-11T09:20:53.679Z,98573.15
2022-10-11T09:23:40.151Z,98567.90
2022-10-11T09:26:23.087Z,98571.66
2022-10-11T09:29:22.518Z,98571.98
2022-10-11T09:31:58.078Z,98573.23
2022-10-11T09:34:35.413Z,98574.63
2022-10-11T09:37:32.962Z,98577.59
2022-10-11T09:40:22.102Z,98578.71
2022-10-11T09:42:49.962Z,98581.98
2022-10-11T09:45:21.420Z,98585.17
2022-10-11T09:47:51.209Z,98587.92
2022-10-11T09:50:23.347Z,98587.22
2022-10-11T09:52:56.654Z,98588.45
2022-10-11T09:55:39.144Z,98591.58
2022-10-11T09:58:25.754Z,98593.70
2022-10-11T10:01:02.770Z,98597.36
2022-10-11T10:03:40.166Z,98600.45
2022-10-11T10:06:17.192Z,98604.94
2022-10-11T10:08:47.265Z,98604.41
2022-10-11T10:11:15.347Z,98610.56
2022-10-11T10:13:43.217Z,98608.23
2022-10-11T10:16:22.274Z,98610.77
2022-10-11T10:19:05.007Z,98613.53
2022-10-11T10:21:36.000Z,98615.32
2022-10-11T10:24:08.786Z,98615.60
2022-10-11T10:26:36.628Z,98616.27
2022-10-11T10:29:24.769Z,98620.36
2022-10-11T10:35:23.290Z,98624.33
2022-10-11T10:38:05.766Z,98630.95
2022-10-11T10:40:43.799Z,98626.35
2022-10-11T10:43:21.321Z,98634.74
2022-10-11T10:46:26.911Z,98633.86
2022-10-11T10:49:48.326Z,98633.98
2022-10-11T10:52:20.038Z,98632.88
2022-10-11T10:54:51.877Z,98633.85
2022-10-11T10:57:33.628Z,98642.34
2022-10-11T11:00:10.841Z,98640.08
2022-10-11T11:02:41.261Z,98640.98
2022-10-11T11:05:28.363Z,98639.98
2022-10-11T11:08:03.936Z,98631.52
2022-10-11T11:11:18.257Z,98633.80
2022-10-11T11:13:58.200Z,98639.05
2022-10-11T11:16:32.239Z,98637.56
2022-10-11T11:19:02.775Z,98641.34
2022-10-11T11:21:48.252Z,98645.16
2022-10-11T11:25:17.828Z,98645.09
2022-10-11T11:28:03.581Z,98646.48
2022-10-11T11:30:49.061Z,98643.60
2022-10-11T11:33:35.740Z,98649.85
2022-10-11T11:36:10.234Z,98649.85
2022-10-11T11:38:49.917Z,98649.61
2022-10-11T11:41:23.105Z,98654.42
2022-10-11T11:43:53.796Z,98656.91
2022-10-11T11:46:35.998Z,98656.52
2022-10-11T11:49:13.524Z,98655.98
2022-10-11T11:51:46.343Z,98659.29
2022-10-11T11:54:17.041Z,98657.88
2022-10-11T11:57:00.016Z,98660.52
2022-10-11T11:59:33.980Z,98662.69
2022-10-11T12:02:22.262Z,98661.52
2022-10-11T12:04:51.296Z,98656.79
2022-10-11T12:07:22.990Z,98661.84
2022-10-11T12:10:22.558Z,98661.79
2022-10-11T12:13:20.057Z,98659.05
2022-10-11T12:16:06.209Z,98660.61
2022-10-11T12:18:41.896Z,98666.58
2022-10-11T12:21:26.412Z,98659.38
2022-10-11T12:23:56.749Z,98666.92
2022-10-11T12:30:47.204Z,98664.80
2022-10-11T12:33:22.607Z,98661.11
2022-10-11T12:35:56.362Z,98659.25
2022-10-11T12:38:28.579Z,98660.39
2022-10-11T12:41:00.614Z,98658.14
2022-10-11T12:43:48.431Z,98655.60
2022-10-11T12:46:28.499Z,98653.20
2022-10-11T12:49:15.141Z,98652.54
2022-10-11T12:51:51.189Z,98652.29
2022-10-11T12:54:44.164Z,98654.44
2022-10-11T12:57:45.902Z,98653.39
2022-10-11T13:00:22.065Z,98658.09
2022-10-11T13:02:50.293Z,98657.50
2022-10-11T13:05:25.845Z,98660.34
2022-10-11T13:07:57.792Z,98662.28
2022-10-11T13:10:36.184Z,98659.82
2022-10-11T13:13:10.099Z,98657.29
2022-10-11T13:15:38.080Z,98662.42
2022-10-11T13:18:05.978Z,98665.63
2022-10-11T13:20:37.622Z,98660.98
2022-10-11T13:23:27.922Z,98661.38
2022-10-11T13:25:56.727Z,98655.97
2022-10-11T13:28:24.687Z,98657.02
2022-10-11T13:30:56.075Z,98659.59
2022-10-11T13:33:37.603Z,98658.89
2022-10-11T13:36:09.517Z,98661.82
2022-10-11T13:38:37.627Z,98662.34
2022-10-11T13:41:10.384Z,98662.67
2022-10-11T13:43:40.830Z,98666.23
2022-10-11T13:46:19.457Z,98662.54
2022-10-11T13:49:01.165Z,98661.86
2022-10-11T13:51:37.670Z,98659.64
2022-10-11T13:54:11.761Z,98657.40
2022-10-11T13:56:46.276Z,98657.89
2022-10-11T13:59:32.348Z,98657.02
2022-10-11T14:02:04.381Z,98660.31
2022-10-11T14:04:40.849Z,98653.47
2022-10-11T14:07:26.512Z,98655.67
2022-10-11T14:09:55.946Z,98653.61
2022-10-11T14:12:32.304Z,98655.59
2022-10-11T14:15:01.702Z,98654.42
2022-10-11T14:17:47.801Z,98655.66
2022-10-11T14:20:29.557Z,98652.90
2022-10-11T14:23:00.257Z,98652.19
2022-10-11T14:25:28.499Z,98652.38
2022-10-11T14:27:56.992Z,98658.29
2022-10-11T14:30:27.636Z,98658.17
2022-10-11T14:33:01.144Z,98657.86
2022-10-11T14:35:32.243Z,98659.61
2022-10-11T14:38:00.786Z,98659.31
2022-10-11T14:40:31.159Z,98655.04
2022-10-11T14:42:59.143Z,98658.23
2022-10-11T14:45:28.231Z,98656.96
2022-10-11T14:47:56.554Z,98658.74
2022-10-11T14:50:39.297Z,98656.33
2022-10-11T14:53:09.005Z,98660.50
2022-10-11T14:55:38.622Z,98659.73
2022-10-11T14:58:10.159Z,98659.39
2022-10-11T15:00:42.653Z,98661.58
2022-10-11T15:03:10.640Z,98658.48
2022-10-11T15:05:39.067Z,98662.04
2022-10-11T15:08:07.355Z,98666.88
2022-10-11T15:10:40.737Z,98664.98
2022-10-11T15:13:09.155Z,98668.02
2022-10-11T15:15:40.930Z,98664.89
2022-10-11T15:18:18.775Z,98665.10
2022-10-11T15:20:46.827Z,98666.78
2022-10-11T15:23:14.691Z,98670.00
2022-10-11T15:25:42.948Z,98671.58
2022-10-11T15:28:22.558Z,98667.87
2022-10-11T15:30:50.574Z,98672.02
2022-10-11T15:33:18.553Z,98677.52
2022-10-11T15:35:47.348Z,98674.05
2022-10-11T15:38:24.149Z,98678.70
2022-10-11T15:40:53.064Z,98685.33
2022-10-11T15:43:24.784Z,98689.58
2022-10-11T15:45:54.911Z,98692.68
2022-10-11T15:48:26.491Z,98698.77
2022-10-11T15:50:55.008Z,98701.55
2022-10-11T15:53:28.551Z,98704.31
2022-10-11T15:56:03.549Z,98709.67
2022-10-11T15:58:34.858Z,98709.92
2022-10-11T16:01:14.866Z,98712.98
2022-10-11T16:03:43.765Z,98714.11
2022-10-11T16:06:12.408Z,98722.88
2022-10-11T16:08:41.861Z,98723.50
2022-10-11T16:11:10.997Z,98724.63
2022-10-11T16:13:39.450Z,98730.64
2022-10-11T16:16:09.004Z,98729.20
2022-10-11T16:18:37.984Z,98732.27
2022-10-11T16:21:10.752Z,98734.60
2022-10-11T16:23:38.948Z,98737.42
2022-10-11T16:26:13.457Z,98736.73
2022-10-11T16:28:42.167Z,98740.25
2022-10-11T16:31:13.399Z,98741.13
2022-10-11T16:33:47.864Z,98744.99
2022-10-11T16:36:32.079Z,98744.97
2022-10-11T16:39:02.609Z,98744.27
2022-10-11T16:41:30.512Z,98743.65
2022-10-11T16:43:58.412Z,98743.53
2022-10-11T16:46:26.318Z,98744.88
2022-10-11T16:48:58.539Z,98750.75
2022-10-11T16:51:26.400Z,98752.44
2022-10-11T16:53:54.285Z,98754.23
2022-10-11T16:56:24.227Z,98756.81
2022-10-11T16:58:56.138Z,98760.30
2022-10-11T17:01:24.171Z,98762.89
2022-10-11T17:03:52.981Z,98765.66
2022-10-11T17:06:20.865Z,98761.77
2022-10-11T17:08:48.802Z,98767.98
2022-10-11T17:11:17.895Z,98769.25
2022-10-11T17:13:46.626Z,98773.91
2022-10-11T17:16:15.059Z,98773.30
2022-10-11T17:18:43.337Z,98774.52
2022-10-11T17:21:16.273Z,98774.13
2022-10-11T17:23:44.447Z,98776.69
2022-10-11T17:26:19.670Z,98782.00
2022-10-11T17:28:47.791Z,98779.79
2022-10-11T17:31:15.982Z,98783.38
2022-10-11T17:33:44.052Z,98781.04
2022-10-11T17:36:23.221Z,98782.54
2022-10-11T17:38:52.885Z,98781.38
2022-10-11T17:41:28.144Z,98779.74
2022-10-11T17:44:00.054Z,98781.09
2022-10-11T17:46:32.953Z,98778.45
2022-10-11T17:49:05.054Z,98778.08
2022-10-11T17:51:34.586Z,98780.98
2022-10-11T17:54:04.448Z,98781.15
2022-10-11T17:56:37.756Z,98782.77
2022-10-11T17:59:06.798Z,98785.13
2022-10-11T18:01:35.429Z,98785.64
2022-10-11T18:04:06.661Z,98786.14
2022-10-11T18:06:40.055Z,98791.73
2022-10-11T18:09:08.747Z,98789.73
2022-10-11T18:11:37.863Z,98795.21
2022-10-11T18:14:05.906Z,98790.70
2022-10-11T18:16:36.755Z,98788.25
2022-10-11T18:19:07.983Z,98790.22
2022-10-11T18:21:37.797Z,98794.45
2022-10-11T18:24:14.300Z,98789.73
2022-10-11T18:26:47.538Z,98796.06
2022-10-11T18:29:16.943Z,98793.56
2022-10-11T18:31:46.790Z,98796.10
2022-10-11T18:34:16.625Z,98799.00
2022-10-11T18:36:45.231Z,98795.94
2022-10-11T18:39:15.050Z,98799.08
2022-10-11T18:41:45.039Z,98798.63
2022-10-11T18:44:16.235Z,98799.37
2022-10-11T18:46:46.342Z,98791.95
2022-10-11T18:49:14.980Z,98796.83
2022-10-11T18:51:45.448Z,98801.91
2022-10-11T18:54:18.383Z,98804.30
2022-10-11T18:56:49.456Z,98802.09
2022-10-11T18:59:17.634Z,98803.75
2022-10-11T19:01:46.180Z,98803.39
2022-10-11T19:04:18.202Z,98799.05
2022-10-11T19:06:49.224Z,98800.95
2022-10-11T19:09:25.424Z,98797.20
2022-10-11T19:11:56.755Z,98796.52
2022-10-11T19:14:29.286Z,98798.54
2022-10-11T19:16:58.279Z,98799.20
2022-10-11T19:19:28.506Z,98805.05
2022-10-11T19:21:57.260Z,98809.91
2022-10-11T19:24:28.123Z,98807.63
2022-10-11T19:27:02.057Z,98807.89
2022-10-11T19:29:31.049Z,98808.92
2022-10-11T19:32:01.576Z,98809.73
2022-10-11T19:34:31.578Z,98806.42
2022-10-11T19:37:01.232Z,98809.35
2022-10-11T19:39:29.943Z,98805.09
2022-10-11T19:41:58.063Z,98811.18
2022-10-11T19:44:26.014Z,98813.14
2022-10-11T19:46:54.062Z,98810.49
2022-10-11T19:49:25.410Z,98814.39
2022-10-11T19:51:55.702Z,98817.05
2022-10-11T19:54:24.697Z,98816.36
2022-10-11T19:56:52.924Z,98816.99
2022-10-11T19:59:21.260Z,98817.25
2022-10-11T20:01:53.231Z,98818.69
2022-10-11T20:04:47.478Z,98819.52
2022-10-11T20:07:10.795Z,98819.23
2022-10-11T20:09:38.731Z,98818.20
2022-10-11T20:12:07.093Z,98820.48
2022-10-11T20:14:35.097Z,98821.34
2022-10-11T20:17:03.028Z,98819.65
2022-10-11T20:19:31.642Z,98827.73
2022-10-11T20:22:00.833Z,98822.73
2022-10-11T20:24:33.109Z,98824.23
2022-10-11T20:27:06.686Z,98826.69
2022-10-11T20:29:35.272Z,98827.04
2022-10-11T20:32:03.077Z,98824.81
2022-10-11T20:34:31.179Z,98825.27
2022-10-11T20:36:59.194Z,98822.00
2022-10-11T20:39:27.152Z,98825.08
2022-10-11T20:41:55.121Z,98831.77
2022-10-11T20:44:23.171Z,98834.20
2022-10-11T20:46:51.273Z,98832.20
2022-10-11T20:49:20.078Z,98835.20
2022-10-11T20:51:48.670Z,98837.05
2022-10-11T20:54:16.865Z,98838.90
2022-10-11T20:56:44.770Z,98841.48
2022-10-11T20:59:12.689Z,98843.78
2022-10-11T21:01:40.948Z,98835.92
2022-10-11T21:04:19.100Z,98841.77
2022-10-11T21:06:48.575Z,98841.31
2022-10-11T21:09:17.538Z,98841.15
2022-10-11T21:11:46.157Z,98843.55
2022-10-11T21:14:16.381Z,98844.92
2022-10-11T21:16:44.213Z,98845.82
2022-10-11T21:19:15.372Z,98845.65
2022-10-11T21:21:50.971Z,98849.45
2022-10-11T21:24:21.537Z,98850.27
2022-10-11T21:26:49.468Z,98848.42
2022-10-11T21:29:17.572Z,98849.66
2022-10-11T21:31:45.458Z,98847.66
2022-10-11T21:34:13.337Z,98850.40
2022-10-11T21:36:41.281Z,98851.23
2022-10-11T21:39:09.491Z,98849.96
2022-10-11T21:41:37.309Z,98853.05
2022-10-11T21:44:05.546Z,98851.85
2022-10-11T21:49:23.953Z,98860.05
2022-10-11T21:51:51.900Z,98859.66
2022-10-11T21:54:20.017Z,98859.21
2022-10-11T21:56:47.884Z,98858.77
2022-10-11T21:59:15.961Z,98855.99
2022-10-11T22:01:44.045Z,98857.55
2022-10-11T22:04:12.088Z,98856.75
2022-10-11T22:06:40.320Z,98854.20
2022-10-11T22:09:09.165Z,98852.27
2022-10-11T22:11:37.546Z,98851.19
2022-10-11T22:14:06.114Z,98844.27
2022-10-11T22:16:34.917Z,98849.04
2022-10-11T22:19:03.239Z,98843.50
2022-10-11T22:21:31.095Z,98843.27
2022-10-11T22:23:58.976Z,98845.42
2022-10-11T22:26:32.554Z,98843.78
2022-10-11T22:29:00.663Z,98841.77
2022-10-11T22:31:29.733Z,98841.70
2022-10-11T22:33:59.753Z,98844.95
2022-10-11T22:36:30.626Z,98846.27
2022-10-11T22:38:59.062Z,98845.10
2022-10-11T22:41:26.970Z,98846.00
2022-10-11T22:43:54.843Z,98843.14
2022-10-11T22:46:22.803Z,98841.33
2022-10-11T22:48:50.595Z,98844.05
2022-10-11T22:51:18.685Z,98848.86
2022-10-11T22:53:46.558Z,98849.98
2022-10-11T22:56:14.524Z,98846.02
2022-10-11T22:58:42.341Z,98849.49
2022-10-11T23:01:13.022Z,98846.22
2022-10-11T23:03:40.984Z,98845.23
2022-10-11T23:06:09.172Z,98848.77
2022-10-11T23:08:36.959Z,98849.34
2022-10-11T23:11:07.261Z,98848.97
2022-10-11T23:13:35.869Z,98848.08
2022-10-11T23:16:09.306Z,98848.20
2022-10-11T23:18:37.990Z,98850.58
2022-10-11T23:21:07.030Z,98844.06
2022-10-11T23:23:35.775Z,98846.97
2022-10-11T23:26:15.397Z,98845.59
2022-10-11T23:28:44.251Z,98848.04
2022-10-11T23:31:17.556Z,98847.80
2022-10-11T23:33:46.671Z,98845.09
2022-10-11T23:36:24.570Z,98847.02
2022-10-11T23:38:56.668Z,98845.47
2022-10-11T23:41:26.817Z,98844.58
2022-10-11T23:43:55.046Z,98850.29
2022-10-11T23:46:23.019Z,98845.59
2022-10-11T23:48:51.006Z,98845.27
2022-10-11T23:51:18.842Z,98847.03
2022-10-11T23:53:46.663Z,98851.64
2022-10-11T23:56:14.579Z,98852.18
2022-10-11T23:58:42.664Z,98850.64
